createdAt,value
2023-04-18T00:00:21.742Z,101230.28
2023-04-18T00:01:23.862Z,101229.41
2023-04-18T00:02:26.215Z,101226.81
2023-04-18T00:03:30.102Z,101227.72
2023-04-18T00:04:34.269Z,101229.50
2023-04-18T00:05:36.846Z,101235.69
2023-04-18T00:06:38.851Z,101226.88
2023-04-18T00:07:41.392Z,101226.06
2023-04-18T00:08:43.340Z,101228.81
2023-04-18T00:09:45.281Z,101228.91
2023-04-18T00:10:47.562Z,101226.31
2023-04-18T00:11:49.367Z,101222.81
2023-04-18T00:12:51.721Z,101225.50
2023-04-18T00:13:53.831Z,101233.50
2023-04-18T00:14:55.819Z,101227.31
2023-04-18T00:15:57.661Z,101230.00
2023-04-18T00:16:59.758Z,101231.75
2023-04-18T00:18:06.145Z,101230.00
2023-04-18T00:19:08.853Z,101234.44
2023-04-18T00:20:11.384Z,101237.13
2023-04-18T00:21:13.696Z,101241.56
2023-04-18T00:22:17.069Z,101237.16
2023-04-18T00:23:21.602Z,101242.44
2023-04-18T00:24:23.512Z,101234.50
2023-04-18T00:25:25.651Z,101236.31
2023-04-18T00:26:28.261Z,101236.38
2023-04-18T00:27:30.266Z,101233.75
2023-04-18T00:28:32.174Z,101233.75
2023-04-18T00:29:34.148Z,101232.00
2023-04-18T00:30:35.995Z,101234.63
2023-04-18T00:31:38.115Z,101226.63
2023-04-18T00:32:40.134Z,101228.38
2023-04-18T00:33:42.168Z,101230.13
2023-04-18T00:34:44.220Z,101230.13
2023-04-18T00:35:46.098Z,101224.84
2023-04-18T00:36:48.001Z,101223.94
2023-04-18T00:37:49.964Z,101229.25
2023-04-18T00:38:51.795Z,101237.16
2023-04-18T00:39:54.093Z,101232.75
2023-04-18T00:40:55.929Z,101230.13
2023-04-18T00:41:58.009Z,101233.63
2023-04-18T00:43:00.787Z,101231.91
2023-04-18T00:44:02.804Z,101231.06
2023-04-18T00:45:05.612Z,101224.00
2023-04-18T00:46:09.375Z,101228.44
2023-04-18T00:47:11.211Z,101224.03
2023-04-18T00:48:13.130Z,101231.09
2023-04-18T00:49:15.895Z,101237.22
2023-04-18T00:50:18.593Z,101225.81
2023-04-18T00:51:21.376Z,101224.91
2023-04-18T00:52:27.341Z,101228.47
2023-04-18T00:53:29.565Z,101226.69
2023-04-18T00:54:31.538Z,101228.41
2023-04-18T00:55:35.846Z,101229.25
2023-04-18T00:56:38.004Z,101233.72
2023-04-18T00:57:40.835Z,101226.63
2023-04-18T00:58:42.940Z,101222.25
2023-04-18T00:59:47.374Z,101226.69
2023-04-18T01:00:49.551Z,101229.34
2023-04-18T01:01:51.487Z,101225.84
2023-04-18T01:02:54.103Z,101217.91
2023-04-18T01:03:56.324Z,101221.44
2023-04-18T01:05:01.337Z,101217.91
2023-04-18T01:06:03.314Z,101224.06
2023-04-18T01:07:06.354Z,101218.78
2023-04-18T01:08:08.376Z,101223.19
2023-04-18T01:09:11.021Z,101218.75
2023-04-18T01:10:13.059Z,101219.63
2023-04-18T01:11:15.082Z,101214.28
2023-04-18T01:12:17.261Z,101215.19
2023-04-18T01:13:20.956Z,101222.22
2023-04-18T01:14:23.483Z,101217.84
2023-04-18T01:15:25.557Z,101217.84
2023-04-18T01:16:29.305Z,101221.44
2023-04-18T01:17:31.868Z,101224.09
2023-04-18T01:18:35.237Z,101218.88
2023-04-18T01:19:40.591Z,101215.41
2023-04-18T01:20:46.919Z,101219.84
2023-04-18T01:21:48.878Z,101214.59
2023-04-18T01:22:51.394Z,101213.72
2023-04-18T01:23:54.012Z,101212.03
2023-04-18T01:24:55.906Z,101224.34
2023-04-18T01:25:57.894Z,101210.28
2023-04-18T01:26:59.950Z,101211.13
2023-04-18T01:28:02.931Z,101210.25
2023-04-18T01:29:05.183Z,101213.75
2023-04-18T01:30:08.260Z,101197.03
2023-04-18T01:31:10.301Z,101206.69
2023-04-18T01:32:12.730Z,101215.50
2023-04-18T01:33:14.712Z,101212.81
2023-04-18T01:34:18.192Z,101209.31
2023-04-18T01:35:20.052Z,101211.91
2023-04-18T01:36:22.100Z,101211.88
2023-04-18T01:37:23.887Z,101210.97
2023-04-18T01:38:26.080Z,101207.44
2023-04-18T01:39:29.027Z,101210.03
2023-04-18T01:40:31.493Z,101206.56
2023-04-18T01:41:33.470Z,101209.22
2023-04-18T01:42:35.448Z,101215.34
2023-04-18T01:43:37.333Z,101211.81
2023-04-18T01:44:39.952Z,101212.69
2023-04-18T01:45:41.796Z,101218.84
2023-04-18T01:46:43.694Z,101224.13
2023-04-18T01:47:45.655Z,101224.19
2023-04-18T01:48:48.375Z,101225.91
2023-04-18T01:49:50.433Z,101224.19
2023-04-18T01:50:52.375Z,101222.38
2023-04-18T01:51:54.505Z,101219.66
2023-04-18T01:52:56.479Z,101219.63
2023-04-18T01:53:58.333Z,101215.19
2023-04-18T01:55:02.225Z,101215.19
2023-04-18T01:56:04.139Z,101221.31
2023-04-18T01:57:06.338Z,101211.59
2023-04-18T01:58:08.284Z,101212.50
2023-04-18T01:59:10.224Z,101211.59
2023-04-18T02:00:13.491Z,101211.56
2023-04-18T02:01:15.602Z,101216.81
2023-04-18T02:02:17.607Z,101215.91
2023-04-18T02:03:20.230Z,101213.19
2023-04-18T02:04:22.402Z,101213.16
2023-04-18T02:05:24.487Z,101209.59
2023-04-18T02:06:26.520Z,101216.59
2023-04-18T02:07:28.551Z,101213.91
2023-04-18T02:08:31.179Z,101205.88
2023-04-18T02:09:33.081Z,101214.69
2023-04-18T02:10:34.925Z,101215.56
2023-04-18T02:11:36.989Z,101214.69
2023-04-18T02:12:38.775Z,101214.69
2023-04-18T02:13:41.492Z,101215.56
2023-04-18T02:14:43.398Z,101211.16
2023-04-18T02:15:48.954Z,101214.72
2023-04-18T02:16:51.104Z,101211.22
2023-04-18T02:17:53.887Z,101217.41
2023-04-18T02:18:56.043Z,101211.28
2023-04-18T02:19:57.961Z,101213.94
2023-04-18T02:20:59.848Z,101208.66
2023-04-18T02:22:01.778Z,101211.34
2023-04-18T02:23:04.079Z,101215.72
2023-04-18T02:24:05.982Z,101209.56
2023-04-18T02:25:08.321Z,101213.97
2023-04-18T02:26:11.270Z,101202.50
2023-04-18T02:27:13.148Z,101209.56
2023-04-18T02:28:15.174Z,101209.56
2023-04-18T02:29:17.185Z,101213.06
2023-04-18T02:30:19.263Z,101207.78
2023-04-18T02:31:22.920Z,101209.50
2023-04-18T02:32:24.900Z,101212.13
2023-04-18T02:33:27.399Z,101207.69
2023-04-18T02:34:29.425Z,101207.59
2023-04-18T02:35:31.877Z,101204.94
2023-04-18T02:36:34.136Z,101199.63
2023-04-18T02:37:36.927Z,101212.78
2023-04-18T02:38:38.932Z,101210.09
2023-04-18T02:39:41.932Z,101210.00
2023-04-18T02:40:43.747Z,101214.31
2023-04-18T02:41:45.788Z,101216.94
2023-04-18T02:42:47.775Z,101217.72
2023-04-18T02:43:49.733Z,101212.34
2023-04-18T02:44:52.628Z,101214.09
2023-04-18T02:45:54.545Z,101222.03
2023-04-18T02:46:56.378Z,101216.59
2023-04-18T02:47:58.601Z,101211.16
2023-04-18T02:49:00.765Z,101214.47
2023-04-18T02:50:04.116Z,101217.81
2023-04-18T02:51:07.753Z,101210.53
2023-04-18T02:52:09.841Z,101210.31
2023-04-18T02:53:11.839Z,101213.75
2023-04-18T02:54:14.119Z,101217.22
2023-04-18T02:55:16.483Z,101208.34
2023-04-18T02:56:18.947Z,101213.56
2023-04-18T02:57:21.086Z,101210.88
2023-04-18T02:58:23.299Z,101213.47
2023-04-18T02:59:25.155Z,101207.25
2023-04-18T03:00:27.079Z,101214.28
2023-04-18T03:01:29.225Z,101208.06
2023-04-18T03:02:31.393Z,101207.97
2023-04-18T03:03:33.302Z,101210.56
2023-04-18T03:04:35.675Z,101201.63
2023-04-18T03:05:37.587Z,101206.81
2023-04-18T03:06:39.516Z,101204.09
2023-04-18T03:07:41.397Z,101209.34
2023-04-18T03:08:43.306Z,101210.19
2023-04-18T03:09:45.402Z,101209.28
2023-04-18T03:10:47.286Z,101201.25
2023-04-18T03:11:49.048Z,101206.50
2023-04-18T03:12:50.959Z,101212.66
2023-04-18T03:13:54.181Z,101217.91
2023-04-18T03:14:56.255Z,101212.47
2023-04-18T03:15:58.260Z,101214.94
2023-04-18T03:17:00.334Z,101223.56
2023-04-18T03:18:02.188Z,101211.78
2023-04-18T03:19:04.198Z,101210.59
2023-04-18T03:20:06.802Z,101210.16
2023-04-18T03:21:09.077Z,101214.94
2023-04-18T03:22:10.883Z,101209.94
2023-04-18T03:23:12.763Z,101203.19
2023-04-18T03:24:14.810Z,101215.06
2023-04-18T03:25:17.085Z,101204.84
2023-04-18T03:26:19.428Z,101209.84
2023-04-18T03:27:21.264Z,101200.66
2023-04-18T03:28:23.122Z,101199.75
2023-04-18T03:29:25.029Z,101204.25
2023-04-18T03:30:27.059Z,101203.50
2023-04-18T03:31:29.033Z,101201.81
2023-04-18T03:32:33.913Z,101208.97
2023-04-18T03:33:35.950Z,101200.25
2023-04-18T03:34:37.774Z,101195.91
2023-04-18T03:35:39.770Z,101204.59
2023-04-18T03:36:42.012Z,101209.47
2023-04-18T03:37:44.067Z,101206.28
2023-04-18T03:38:47.345Z,101200.44
2023-04-18T03:39:49.242Z,101202.66
2023-04-18T03:40:51.084Z,101189.97
2023-04-18T03:41:53.031Z,101195.38
2023-04-18T03:42:54.809Z,101195.59
2023-04-18T03:43:56.852Z,101196.66
2023-04-18T03:44:58.948Z,101198.47
2023-04-18T03:46:01.027Z,101196.63
2023-04-18T03:47:03.302Z,101191.97
2023-04-18T03:48:05.624Z,101196.19
2023-04-18T03:49:07.690Z,101194.72
2023-04-18T03:50:09.892Z,101202.41
2023-04-18T03:51:11.819Z,101195.91
2023-04-18T03:52:13.799Z,101194.84
2023-04-18T03:53:16.093Z,101201.75
2023-04-18T03:54:18.591Z,101215.66
2023-04-18T03:55:21.048Z,101204.69
2023-04-18T03:56:23.478Z,101202.56
2023-04-18T03:57:25.587Z,101211.78
2023-04-18T03:58:27.591Z,101216.28
2023-04-18T03:59:30.416Z,101215.09
2023-04-18T04:00:32.590Z,101209.00
2023-04-18T04:01:34.618Z,101201.25
2023-04-18T04:02:37.085Z,101204.13
2023-04-18T04:03:39.222Z,101208.03
2023-04-18T04:04:41.486Z,101215.38
2023-04-18T04:05:43.563Z,101218.47
2023-04-18T04:06:45.641Z,101222.47
2023-04-18T04:07:47.796Z,101212.09
2023-04-18T04:08:49.786Z,101211.63
2023-04-18T04:09:51.593Z,101214.44
2023-04-18T04:10:53.614Z,101212.03
2023-04-18T04:11:55.670Z,101217.66
2023-04-18T04:12:57.532Z,101206.41
2023-04-18T04:13:59.365Z,101208.34
2023-04-18T04:15:01.542Z,101205.78
2023-04-18T04:16:05.188Z,101201.69
2023-04-18T04:17:07.423Z,101206.34
2023-04-18T04:18:09.347Z,101216.28
2023-04-18T04:19:11.287Z,101213.72
2023-04-18T04:20:13.240Z,101216.66
2023-04-18T04:21:15.948Z,101219.47
2023-04-18T04:22:17.893Z,101208.03
2023-04-18T04:23:19.868Z,101207.31
2023-04-18T04:24:22.798Z,101214.53
2023-04-18T04:25:28.813Z,101203.13
2023-04-18T04:26:30.932Z,101205.94
2023-04-18T04:27:34.172Z,101203.41
2023-04-18T04:28:36.269Z,101194.63
2023-04-18T04:29:39.382Z,101200.88
2023-04-18T04:30:41.801Z,101200.88
2023-04-18T04:31:44.017Z,101203.63
2023-04-18T04:32:46.028Z,101198.41
2023-04-18T04:33:48.050Z,101194.88
2023-04-18T04:34:50.620Z,101198.31
2023-04-18T04:35:52.894Z,101203.56
2023-04-18T04:36:55.122Z,101208.88
2023-04-18T04:37:57.130Z,101195.66
2023-04-18T04:38:59.621Z,101198.38
2023-04-18T04:40:01.560Z,101204.50
2023-04-18T04:41:04.046Z,101197.53
2023-04-18T04:42:06.050Z,101202.78
2023-04-18T04:43:12.697Z,101194.69
2023-04-18T04:44:17.755Z,101196.94
2023-04-18T04:45:20.548Z,101199.31
2023-04-18T04:46:23.353Z,101198.00
2023-04-18T04:47:26.269Z,101190.66
2023-04-18T04:48:28.222Z,101191.41
2023-04-18T04:49:30.165Z,101197.50
2023-04-18T04:50:36.302Z,101205.44
2023-04-18T04:51:38.403Z,101203.78
2023-04-18T04:52:40.404Z,101203.88
2023-04-18T04:53:42.349Z,101199.31
2023-04-18T04:54:45.999Z,101207.31
2023-04-18T04:55:48.413Z,101205.34
2023-04-18T04:56:50.619Z,101205.34
2023-04-18T04:57:52.430Z,101205.19
2023-04-18T04:58:56.193Z,101199.84
2023-04-18T04:59:58.236Z,101199.66
2023-04-18T05:01:00.795Z,101211.97
2023-04-18T05:02:02.698Z,101207.53
2023-04-18T05:03:05.020Z,101201.22
2023-04-18T05:04:07.085Z,101200.25
2023-04-18T05:05:09.439Z,101206.41
2023-04-18T05:06:11.408Z,101211.66
2023-04-18T05:07:13.504Z,101213.34
2023-04-18T05:08:15.650Z,101216.69
2023-04-18T05:09:17.590Z,101213.91
2023-04-18T05:10:19.626Z,101225.22
2023-04-18T05:11:22.329Z,101219.63
2023-04-18T05:12:24.155Z,101228.31
2023-04-18T05:13:26.027Z,101226.44
2023-04-18T05:14:27.966Z,101214.13
2023-04-18T05:15:32.038Z,101214.13
2023-04-18T05:16:33.849Z,101199.34
2023-04-18T05:17:35.740Z,101206.75
2023-04-18T05:18:39.438Z,101197.19
2023-04-18T05:19:43.445Z,101190.28
2023-04-18T05:20:45.387Z,101194.84
2023-04-18T05:21:47.162Z,101200.19
2023-04-18T05:22:49.130Z,101197.50
2023-04-18T05:23:50.946Z,101194.94
2023-04-18T05:24:53.177Z,101187.81
2023-04-18T05:25:55.234Z,101197.41
2023-04-18T05:26:57.901Z,101199.06
2023-04-18T05:28:04.891Z,101206.66
2023-04-18T05:29:06.960Z,101201.47
2023-04-18T05:30:09.305Z,101195.47
2023-04-18T05:31:11.248Z,101187.09
2023-04-18T05:32:13.233Z,101183.38
2023-04-18T05:33:15.464Z,101181.66
2023-04-18T05:34:17.266Z,101187.88
2023-04-18T05:35:19.197Z,101186.16
2023-04-18T05:36:21.055Z,101193.34
2023-04-18T05:37:23.105Z,101187.97
2023-04-18T05:38:25.163Z,101193.84
2023-04-18T05:39:27.682Z,101198.56
2023-04-18T05:40:30.101Z,101199.91
2023-04-18T05:41:32.077Z,101204.69
2023-04-18T05:42:33.933Z,101199.19
2023-04-18T05:43:36.022Z,101195.53
2023-04-18T05:44:37.852Z,101200.53
2023-04-18T05:45:39.771Z,101210.66
2023-04-18T05:46:42.565Z,101214.50
2023-04-18T05:47:44.908Z,101203.94
2023-04-18T05:48:46.727Z,101210.28
2023-04-18T05:49:48.826Z,101200.34
2023-04-18T05:50:50.815Z,101203.66
2023-04-18T05:51:53.095Z,101197.41
2023-04-18T05:52:55.125Z,101200.75
2023-04-18T05:53:57.020Z,101202.56
2023-04-18T05:54:58.922Z,101197.25
2023-04-18T05:56:01.473Z,101202.63
2023-04-18T05:57:04.729Z,101194.50
2023-04-18T05:58:07.772Z,101201.78
2023-04-18T05:59:09.606Z,101195.84
2023-04-18T06:00:12.477Z,101198.06
2023-04-18T06:01:14.482Z,101199.09
2023-04-18T06:02:16.753Z,101202.00
2023-04-18T06:03:18.929Z,101204.47
2023-04-18T06:04:21.475Z,101201.66
2023-04-18T06:05:24.017Z,101201.22
2023-04-18T06:06:26.404Z,101200.34
2023-04-18T06:07:28.383Z,101203.91
2023-04-18T06:08:30.353Z,101206.16
2023-04-18T06:09:32.171Z,101204.94
2023-04-18T06:10:34.067Z,101203.78
2023-04-18T06:11:36.248Z,101194.63
2023-04-18T06:12:38.150Z,101204.91
2023-04-18T06:13:40.056Z,101202.50
2023-04-18T06:14:42.090Z,101202.78
2023-04-18T06:15:44.016Z,101210.06
2023-04-18T06:16:46.234Z,101205.75
2023-04-18T06:17:48.333Z,101211.28
2023-04-18T06:18:50.282Z,101209.94
2023-04-18T06:19:52.074Z,101208.78
2023-04-18T06:20:54.508Z,101204.81
2023-04-18T06:21:56.488Z,101204.31
2023-04-18T06:22:58.360Z,101209.28
2023-04-18T06:24:01.757Z,101213.22
2023-04-18T06:25:04.078Z,101210.59
2023-04-18T06:26:07.308Z,101214.19
2023-04-18T06:27:17.552Z,101205.63
2023-04-18T06:28:26.467Z,101210.09
2023-04-18T06:29:30.619Z,101216.31
2023-04-18T06:30:32.567Z,101213.59
2023-04-18T06:31:34.489Z,101210.66
2023-04-18T06:32:36.386Z,101208.38
2023-04-18T06:33:38.352Z,101199.88
2023-04-18T06:34:40.861Z,101206.59
2023-04-18T06:35:42.881Z,101215.28
2023-04-18T06:36:44.756Z,101209.06
2023-04-18T06:37:46.673Z,101210.78
2023-04-18T06:38:48.709Z,101207.97
2023-04-18T06:39:50.769Z,101211.19
2023-04-18T06:40:52.696Z,101211.56
2023-04-18T06:41:54.548Z,101211.28
2023-04-18T06:42:56.479Z,101210.13
2023-04-18T06:45:03.972Z,101207.47
2023-04-18T06:46:06.512Z,101206.97
2023-04-18T06:47:08.748Z,101205.44
2023-04-18T06:48:11.016Z,101209.28
2023-04-18T06:49:12.921Z,101209.44
2023-04-18T06:50:15.646Z,101202.22
2023-04-18T06:51:17.506Z,101205.44
2023-04-18T06:52:19.426Z,101206.88
2023-04-18T06:53:21.706Z,101203.06
2023-04-18T06:54:23.636Z,101196.84
2023-04-18T06:55:25.475Z,101203.06
2023-04-18T06:56:27.432Z,101208.31
2023-04-18T06:57:29.303Z,101204.81
2023-04-18T06:58:31.308Z,101206.16
2023-04-18T06:59:33.188Z,101207.03
2023-04-18T07:00:35.176Z,101202.47
2023-04-18T07:01:43.672Z,101204.94
2023-04-18T07:02:45.820Z,101200.44
2023-04-18T07:03:48.126Z,101205.66
2023-04-18T07:04:50.408Z,101199.19
2023-04-18T07:05:52.420Z,101206.09
2023-04-18T07:06:54.317Z,101200.59
2023-04-18T07:07:56.157Z,101201.41
2023-04-18T07:09:01.048Z,101206.78
2023-04-18T07:10:03.126Z,101211.41
2023-04-18T07:11:07.083Z,101200.94
2023-04-18T07:12:09.182Z,101199.59
2023-04-18T07:13:11.083Z,101206.63
2023-04-18T07:14:13.320Z,101201.84
2023-04-18T07:15:15.668Z,101201.44
2023-04-18T07:16:17.876Z,101203.78
2023-04-18T07:17:19.971Z,101204.34
2023-04-18T07:18:34.157Z,101202.34
2023-04-18T07:19:41.287Z,101207.41
2023-04-18T07:20:43.186Z,101202.09
2023-04-18T07:21:46.276Z,101199.28
2023-04-18T07:22:48.951Z,101209.78
2023-04-18T07:23:50.848Z,101204.56
2023-04-18T07:24:52.669Z,101203.63
2023-04-18T07:25:54.824Z,101202.63
2023-04-18T07:26:57.000Z,101208.78
2023-04-18T07:27:59.908Z,101201.03
2023-04-18T07:29:01.741Z,101195.06
2023-04-18T07:30:04.567Z,101200.38
2023-04-18T07:31:11.306Z,101201.31
2023-04-18T07:32:13.473Z,101193.84
2023-04-18T07:33:15.246Z,101202.47
2023-04-18T07:34:17.979Z,101198.53
2023-04-18T07:35:20.005Z,101194.63
2023-04-18T07:36:21.960Z,101199.69
2023-04-18T07:37:24.105Z,101204.91
2023-04-18T07:38:27.430Z,101207.59
2023-04-18T07:39:29.461Z,101204.97
2023-04-18T07:40:31.384Z,101195.91
2023-04-18T07:41:34.394Z,101192.16
2023-04-18T07:42:36.528Z,101195.47
2023-04-18T07:43:38.999Z,101201.56
2023-04-18T07:44:40.883Z,101197.09
2023-04-18T07:45:43.535Z,101205.19
2023-04-18T07:46:46.396Z,101206.88
2023-04-18T07:47:48.408Z,101203.03
2023-04-18T07:48:51.019Z,101204.44
2023-04-18T07:49:52.825Z,101206.06
2023-04-18T07:50:54.924Z,101203.13
2023-04-18T07:51:56.751Z,101199.81
2023-04-18T07:52:58.741Z,101205.19
2023-04-18T07:54:00.973Z,101204.16
2023-04-18T07:55:02.945Z,101203.91
2023-04-18T07:56:05.007Z,101204.47
2023-04-18T07:57:06.995Z,101204.78
2023-04-18T07:58:09.412Z,101203.66
2023-04-18T07:59:11.715Z,101205.28
2023-04-18T08:00:14.338Z,101205.44
2023-04-18T08:01:18.722Z,101202.75
2023-04-18T08:02:21.741Z,101202.22
2023-04-18T08:03:24.049Z,101192.66
2023-04-18T08:04:29.126Z,101193.47
2023-04-18T08:05:32.229Z,101199.41
2023-04-18T08:06:34.976Z,101200.81
2023-04-18T08:07:37.181Z,101196.00
2023-04-18T08:08:38.964Z,101198.53
2023-04-18T08:09:40.920Z,101193.16
2023-04-18T08:10:42.766Z,101196.41
2023-04-18T08:11:44.779Z,101198.22
2023-04-18T08:12:46.664Z,101205.09
2023-04-18T08:13:48.714Z,101204.94
2023-04-18T08:14:50.636Z,101199.81
2023-04-18T08:15:52.823Z,101203.28
2023-04-18T08:16:54.822Z,101198.78
2023-04-18T08:17:56.934Z,101197.75
2023-04-18T08:18:58.760Z,101200.94
2023-04-18T08:20:04.983Z,101206.31
2023-04-18T08:21:06.864Z,101207.16
2023-04-18T08:22:10.529Z,101210.09
2023-04-18T08:23:13.339Z,101204.94
2023-04-18T08:24:15.600Z,101205.19
2023-04-18T08:25:17.899Z,101206.44
2023-04-18T08:26:20.045Z,101199.34
2023-04-18T08:27:21.819Z,101207.38
2023-04-18T08:28:23.680Z,101202.00
2023-04-18T08:29:25.499Z,101205.31
2023-04-18T08:30:27.850Z,101205.31
2023-04-18T08:31:31.788Z,101195.78
2023-04-18T08:32:34.099Z,101199.47
2023-04-18T08:33:36.210Z,101200.25
2023-04-18T08:34:38.232Z,101203.38
2023-04-18T08:35:40.097Z,101202.81
2023-04-18T08:36:42.046Z,101213.19
2023-04-18T08:37:44.012Z,101210.56
2023-04-18T08:38:46.918Z,101209.47
2023-04-18T08:39:48.824Z,101202.59
2023-04-18T08:40:50.985Z,101206.84
2023-04-18T08:42:00.034Z,101202.34
2023-04-18T08:43:05.081Z,101205.19
2023-04-18T08:44:07.497Z,101208.34
2023-04-18T08:45:09.768Z,101212.78
2023-04-18T08:46:11.929Z,101204.41
2023-04-18T08:47:14.754Z,101200.94
2023-04-18T08:48:18.878Z,101210.72
2023-04-18T08:49:24.350Z,101209.00
2023-04-18T08:50:27.146Z,101208.63
2023-04-18T08:51:40.420Z,101207.41
2023-04-18T08:52:48.899Z,101206.63
2023-04-18T08:53:50.993Z,101204.41
2023-04-18T08:54:53.352Z,101202.50
2023-04-18T08:55:57.352Z,101204.72
2023-04-18T08:57:13.919Z,101203.78
2023-04-18T08:58:22.794Z,101198.25
2023-04-18T08:59:25.398Z,101192.22
2023-04-18T09:00:27.634Z,101199.38
2023-04-18T09:01:58.980Z,101195.97
2023-04-18T09:03:03.941Z,101180.72
2023-04-18T09:04:06.512Z,101187.91
2023-04-18T09:05:13.100Z,101188.16
2023-04-18T09:06:19.450Z,101188.75
2023-04-18T09:07:31.211Z,101187.03
2023-04-18T09:08:33.121Z,101178.19
2023-04-18T09:09:50.431Z,101186.97
2023-04-18T09:10:52.868Z,101179.53
2023-04-18T09:12:09.067Z,101181.13
2023-04-18T09:13:11.266Z,101178.19
2023-04-18T09:14:26.054Z,101182.78
2023-04-18T09:15:29.432Z,101183.97
2023-04-18T09:16:47.090Z,101176.47
2023-04-18T09:17:53.246Z,101178.81
2023-04-18T09:19:18.303Z,101185.88
2023-04-18T09:20:43.820Z,101168.44
2023-04-18T09:21:47.302Z,101168.00
2023-04-18T09:22:51.475Z,101171.63
2023-04-18T09:24:21.194Z,101167.91
2023-04-18T09:25:29.895Z,101165.81
2023-04-18T09:26:36.484Z,101174.47
2023-04-18T09:27:38.377Z,101164.50
2023-04-18T09:28:41.472Z,101171.78
2023-04-18T09:29:49.403Z,101175.53
2023-04-18T09:30:52.826Z,101168.75
2023-04-18T09:31:56.101Z,101159.47
2023-04-18T09:33:00.288Z,101165.78
2023-04-18T09:34:03.258Z,101170.81
2023-04-18T09:35:05.778Z,101168.47
2023-04-18T09:36:32.477Z,101170.53
2023-04-18T09:37:35.356Z,101176.56
2023-04-18T09:38:41.352Z,101172.16
2023-04-18T09:39:44.799Z,101175.47
2023-04-18T09:40:46.719Z,101162.47
2023-04-18T09:41:58.781Z,101177.06
2023-04-18T09:43:00.791Z,101169.34
2023-04-18T09:44:14.909Z,101165.78
2023-04-18T09:45:17.024Z,101172.13
2023-04-18T09:46:19.258Z,101171.78
2023-04-18T09:47:21.160Z,101175.84
2023-04-18T09:48:23.606Z,101171.44
2023-04-18T09:49:25.706Z,101170.75
2023-04-18T09:50:27.622Z,101169.84
2023-04-18T09:51:31.819Z,101171.94
2023-04-18T09:52:42.075Z,101176.81
2023-04-18T09:53:45.195Z,101170.66
2023-04-18T09:54:55.957Z,101176.53
2023-04-18T09:55:58.066Z,101172.13
2023-04-18T09:57:02.986Z,101179.72
2023-04-18T09:58:06.039Z,101175.06
2023-04-18T09:59:09.625Z,101174.69
2023-04-18T10:00:24.646Z,101180.22
2023-04-18T10:01:29.720Z,101181.94
2023-04-18T10:02:40.936Z,101184.03
2023-04-18T10:03:48.151Z,101180.72
2023-04-18T10:04:53.886Z,101183.56
2023-04-18T10:05:57.903Z,101181.72
2023-04-18T10:07:00.943Z,101177.97
2023-04-18T10:08:04.344Z,101183.16
2023-04-18T10:09:09.667Z,101190.97
2023-04-18T10:10:12.012Z,101187.31
2023-04-18T10:11:14.502Z,101182.59
2023-04-18T10:12:18.603Z,101179.88
2023-04-18T10:13:20.843Z,101174.28
2023-04-18T10:14:23.307Z,101172.16
2023-04-18T10:15:28.083Z,101179.97
2023-04-18T10:16:33.396Z,101183.59
2023-04-18T10:18:04.242Z,101170.63
2023-04-18T10:19:26.172Z,101180.41
2023-04-18T10:20:30.215Z,101181.13
2023-04-18T10:21:32.489Z,101180.78
2023-04-18T10:22:35.488Z,101180.13
2023-04-18T10:23:39.376Z,101182.47
2023-04-18T10:24:53.818Z,101181.44
2023-04-18T10:25:55.890Z,101179.19
2023-04-18T10:26:59.355Z,101175.78
2023-04-18T10:28:03.072Z,101180.38
2023-04-18T10:29:04.947Z,101184.91
2023-04-18T10:30:09.114Z,101179.88
2023-04-18T10:31:11.855Z,101183.94
2023-04-18T10:32:13.824Z,101176.38
2023-04-18T10:33:32.442Z,101181.91
2023-04-18T10:34:37.880Z,101188.25
2023-04-18T10:36:15.019Z,101184.03
2023-04-18T10:37:17.919Z,101170.47
2023-04-18T10:38:23.327Z,101182.97
2023-04-18T10:39:26.131Z,101173.16
2023-04-18T10:40:35.063Z,101179.78
2023-04-18T10:41:49.476Z,101181.28
2023-04-18T10:42:52.599Z,101179.44
2023-04-18T10:44:18.201Z,101181.81
2023-04-18T10:45:22.137Z,101178.84
2023-04-18T10:46:31.760Z,101177.97
2023-04-18T10:47:35.405Z,101177.66
2023-04-18T10:48:39.342Z,101171.19
2023-04-18T10:49:54.097Z,101180.56
2023-04-18T10:51:13.414Z,101182.47
2023-04-18T10:52:15.781Z,101174.31
2023-04-18T10:53:17.754Z,101179.34
2023-04-18T10:54:32.582Z,101180.56
2023-04-18T10:55:34.864Z,101178.47
2023-04-18T10:56:37.306Z,101177.75
2023-04-18T10:57:41.092Z,101185.81
2023-04-18T10:58:44.466Z,101179.53
2023-04-18T10:59:50.865Z,101184.03
2023-04-18T11:00:53.676Z,101180.19
2023-04-18T11:02:30.474Z,101169.09
2023-04-18T11:03:35.804Z,101180.53
2023-04-18T11:04:38.201Z,101174.53
2023-04-18T11:05:40.464Z,101179.84
2023-04-18T11:06:56.089Z,101177.44
2023-04-18T11:07:58.248Z,101176.38
2023-04-18T11:09:13.867Z,101178.66
2023-04-18T11:10:19.724Z,101183.50
2023-04-18T11:11:21.990Z,101168.47
2023-04-18T11:12:24.072Z,101173.97
2023-04-18T11:13:27.106Z,101176.19
2023-04-18T11:14:43.025Z,101171.00
2023-04-18T11:15:45.064Z,101168.19
2023-04-18T11:16:47.073Z,101169.59
2023-04-18T11:17:57.773Z,101168.81
2023-04-18T11:19:00.139Z,101167.25
2023-04-18T11:20:09.115Z,101167.00
2023-04-18T11:21:11.204Z,101161.41
2023-04-18T11:22:14.249Z,101166.34
2023-04-18T11:23:23.099Z,101164.91
2023-04-18T11:24:25.028Z,101164.47
2023-04-18T11:25:36.686Z,101169.09
2023-04-18T11:26:39.006Z,101166.66
2023-04-18T11:27:45.756Z,101169.00
2023-04-18T11:28:57.157Z,101171.50
2023-04-18T11:29:59.214Z,101174.31
2023-04-18T11:31:02.980Z,101164.75
2023-04-18T11:32:09.615Z,101162.13
2023-04-18T11:33:12.693Z,101167.84
2023-04-18T11:34:15.483Z,101171.69
2023-04-18T11:35:18.142Z,101169.44
2023-04-18T11:36:20.078Z,101162.72
2023-04-18T11:37:22.745Z,101164.56
2023-04-18T11:38:28.949Z,101163.28
2023-04-18T11:39:34.962Z,101165.19
2023-04-18T11:40:37.450Z,101165.75
2023-04-18T11:41:41.567Z,101167.88
2023-04-18T11:42:43.657Z,101177.66
2023-04-18T11:43:46.919Z,101161.19
2023-04-18T11:44:49.423Z,101162.28
2023-04-18T11:45:56.354Z,101165.81
2023-04-18T11:46:58.539Z,101163.94
2023-04-18T11:48:01.167Z,101156.31
2023-04-18T11:49:03.287Z,101166.16
2023-04-18T11:50:07.358Z,101153.69
2023-04-18T11:51:34.705Z,101156.84
2023-04-18T11:52:37.308Z,101159.25
2023-04-18T11:53:39.821Z,101162.03
2023-04-18T11:54:44.113Z,101155.47
2023-04-18T11:55:56.010Z,101156.06
2023-04-18T11:56:57.921Z,101150.97
2023-04-18T11:58:03.400Z,101160.28
2023-04-18T11:59:09.715Z,101153.19
2023-04-18T12:00:12.862Z,101160.44
2023-04-18T12:01:19.374Z,101156.84
2023-04-18T12:02:22.836Z,101154.38
2023-04-18T12:03:25.234Z,101159.84
2023-04-18T12:04:28.156Z,101160.19
2023-04-18T12:05:36.205Z,101154.00
2023-04-18T12:06:52.890Z,101155.41